Time;durP1;ratioP1;P1;durP2;ratioP2;P2;SDS_P1;SDS_P2;PMS_P1;PMS_P2;Temp;Humidity;BMP_temperature;BMP_pressure;BME280_temperature;BME280_humidity;BME280_pressure;Samples;Min_cycle;Max_cycle;Signal;HPM_P1;HPM_P2
2022/09/14 00:01:33;;;;;;;;;5.75;4.50;;;;;23.84;64.95;99931.94;5014560;28;45359;-53
2022/09/14 00:04:06;;;;;;;;;6.20;4.60;;;;;23.83;64.90;99916.28;4996810;28;46235;-57
2022/09/14 00:06:32;;;;;;;;;10.00;5.40;;;;;23.84;64.50;99923.53;5014790;28;45216;-57
2022/09/14 00:09:00;;;;;;;;;6.25;5.00;;;;;23.83;64.36;99910.66;4991661;28;45384;-56
2022/09/14 00:11:27;;;;;;;;;8.80;6.80;;;;;23.77;64.57;99900.75;5034992;28;45462;-54
2022/09/14 00:13:52;;;;;;;;;5.40;5.40;;;;;23.80;65.04;99902.94;5025771;28;45455;-53
2022/09/14 00:16:23;;;;;;;;;4.75;4.75;;;;;23.60;64.81;99873.50;5014734;28;45457;-55
2022/09/14 00:18:52;;;;;;;;;5.20;4.40;;;;;23.74;64.77;99904.22;5013957;28;45336;-56
2022/09/14 00:21:17;;;;;;;;;4.00;4.00;;;;;23.73;65.39;99892.16;5014727;28;45363;-56
2022/09/14 00:23:43;;;;;;;;;8.75;7.00;;;;;23.74;65.33;99888.22;4996441;28;45676;-55
2022/09/14 00:26:16;;;;;;;;;5.75;5.75;;;;;23.74;65.27;99887.41;5014326;28;45374;-55
2022/09/14 00:28:49;;;;;;;;;5.00;5.00;;;;;23.73;65.17;99892.16;5013093;28;45443;-56
2022/09/14 00:31:14;;;;;;;;;6.40;4.40;;;;;23.68;65.41;99881.09;4996761;28;45321;-56
2022/09/14 00:33:41;;;;;;;;;8.25;5.50;;;;;23.67;65.66;99883.09;5013084;28;45426;-55
2022/09/14 00:36:08;;;;;;;;;7.80;5.00;;;;;23.62;66.00;99874.81;5014130;28;45414;-56
2022/09/14 00:38:34;;;;;;;;;5.00;5.00;;;;;23.65;66.28;99868.56;4996405;28;45471;-58
2022/09/14 00:41:03;;;;;;;;;7.60;6.20;;;;;23.61;66.26;99861.97;5014539;28;45506;-53
2022/09/14 00:43:28;;;;;;;;;4.00;4.00;;;;;23.60;66.30;99849.13;5013965;28;45809;-53
2022/09/14 00:45:54;;;;;;;;;6.75;5.25;;;;;23.60;66.05;99849.13;5013973;28;45320;-54
2022/09/14 00:48:19;;;;;;;;;5.75;5.75;;;;;23.53;66.45;99832.78;5014277;28;45195;-53
2022/09/14 00:50:45;;;;;;;;;9.00;6.25;;;;;23.35;66.00;99803.88;5013040;28;45374;-55
2022/09/14 00:53:11;;;;;;;;;4.00;4.00;;;;;23.53;65.75;99829.16;4996152;28;45467;-54
2022/09/14 00:55:36;;;;;;;;;5.75;5.75;;;;;23.49;66.43;99828.13;5013789;28;45383;-55
2022/09/14 00:58:02;;;;;;;;;5.50;5.50;;;;;23.47;66.14;99822.84;4996290;28;45466;-55
2022/09/14 01:00:28;;;;;;;;;7.25;6.25;;;;;23.33;66.31;99806.16;5012303;28;45659;-55
2022/09/14 01:02:54;;;;;;;;;3.40;3.40;;;;;23.40;66.81;99809.34;4996182;28;45459;-55
2022/09/14 01:05:23;;;;;;;;;5.75;4.25;;;;;23.41;66.74;99813.78;5013977;28;45975;-54
2022/09/14 01:07:52;;;;;;;;;6.20;5.20;;;;;23.40;67.10;99817.72;4997226;28;45367;-54
2022/09/14 01:10:42;;;;;;;;;6.20;5.00;;;;;22.90;66.78;99723.59;5018918;28;45374;-54
2022/09/14 01:13:27;;;;;;;;;5.20;4.00;;;;;23.35;66.70;99794.63;5016132;28;46633;-57
2022/09/14 01:16:41;;;;;;;;;5.60;4.40;;;;;23.10;66.93;99766.97;5016461;28;45378;-54
2022/09/14 01:19:33;;;;;;;;;5.40;5.00;;;;;23.24;66.94;99786.50;4943436;28;45325;-55
2022/09/14 01:22:16;;;;;;;;;5.00;5.00;;;;;23.28;66.84;99792.28;4965862;28;45578;-55
2022/09/14 01:24:47;;;;;;;;;9.20;6.00;;;;;23.29;66.97;99780.75;4997543;28;45458;-55
2022/09/14 01:27:19;;;;;;;;;7.40;5.80;;;;;23.32;66.89;99782.09;4980334;28;45559;-53
2022/09/14 01:29:55;;;;;;;;;7.00;7.00;;;;;23.28;67.09;99773.50;5015207;28;45434;-54
2022/09/14 01:32:30;;;;;;;;;6.80;6.20;;;;;23.29;67.36;99791.97;5032825;28;45331;-55
2022/09/14 01:35:09;;;;;;;;;7.80;7.00;;;;;23.32;67.15;99793.28;5031278;28;46671;-54
2022/09/14 01:37:54;;;;;;;;;5.20;5.20;;;;;23.35;67.07;99792.66;5015681;28;45461;-57
2022/09/14 01:40:44;;;;;;;;;8.80;5.80;;;;;23.36;67.17;99788.72;5017060;28;45392;-56
2022/09/14 01:43:10;;;;;;;;;3.00;3.00;;;;;23.02;67.15;99740.59;5032597;28;45567;-56
2022/09/14 01:45:40;;;;;;;;;4.00;3.50;;;;;23.26;67.69;99788.97;5016941;28;46263;-55
2022/09/14 01:48:06;;;;;;;;;9.60;9.60;;;;;23.28;67.79;99812.69;5031925;28;45430;-55
2022/09/14 01:50:38;;;;;;;;;7.00;5.40;;;;;23.11;67.38;99790.22;5015474;28;45421;-55
2022/09/14 01:53:08;;;;;;;;;5.80;5.00;;;;;23.30;67.60;99818.00;5017100;28;45237;-57
2022/09/14 01:55:45;;;;;;;;;5.00;5.00;;;;;23.28;67.64;99804.28;5015484;28;46605;-54
2022/09/14 01:58:35;;;;;;;;;3.20;3.20;;;;;23.25;67.66;99806.91;5016718;28;45422;-53
2022/09/14 02:01:02;;;;;;;;;5.60;5.20;;;;;23.19;68.08;99792.22;4986311;28;45920;-58
2022/09/14 02:03:36;;;;;;;;;5.80;4.40;;;;;23.18;67.97;99786.94;4998491;28;45662;-56
2022/09/14 02:06:09;;;;;;;;;7.40;3.60;;;;;23.12;68.19;99777.88;5016536;28;46598;-56
2022/09/14 02:08:35;;;;;;;;;4.80;4.40;;;;;23.11;68.20;99774.22;5016616;28;45430;-56
2022/09/14 02:11:00;;;;;;;;;4.00;4.00;;;;;23.06;68.10;99762.34;5016949;28;45555;-56
2022/09/14 02:13:26;;;;;;;;;3.75;3.75;;;;;22.94;68.30;99765.75;4998830;28;45488;-55
2022/09/14 02:15:52;;;;;;;;;4.50;4.50;;;;;23.01;67.84;99780.91;4982488;28;46051;-54
2022/09/14 02:18:17;;;;;;;;;5.00;3.00;;;;;22.82;67.86;99739.19;5017370;28;45438;-56
2022/09/14 02:20:46;;;;;;;;;4.75;3.00;;;;;22.94;68.34;99765.75;5001774;28;45442;-57
2022/09/14 02:23:11;;;;;;;;;7.20;6.40;;;;;22.95;68.45;99768.22;5018812;28;45707;-54
2022/09/14 02:25:39;;;;;;;;;6.25;5.25;;;;;22.98;68.40;99789.13;5017866;28;45407;-54
2022/09/14 02:28:05;;;;;;;;;3.80;3.40;;;;;22.49;68.45;99725.44;5035968;28;45312;-56
2022/09/14 02:30:36;;;;;;;;;4.50;4.00;;;;;22.99;68.61;99807.56;5001883;28;45459;-56
2022/09/14 02:33:30;;;;;;;;;3.80;3.20;;;;;23.01;68.10;99799.69;5018608;28;45782;-56
2022/09/14 02:35:58;;;;;;;;;2.60;2.60;;;;;22.78;68.08;99762.53;5017074;28;45673;-56
2022/09/14 02:38:33;;;;;;;;;5.80;5.00;;;;;23.01;68.29;99799.69;5018370;28;45338;-55
2022/09/14 02:41:29;;;;;;;;;4.00;4.00;;;;;22.98;67.94;99795.56;5018205;28;45309;-56
2022/09/14 02:44:01;;;;;;;;;6.20;6.20;;;;;23.01;68.19;99803.31;5018139;28;45645;-56
2022/09/14 02:47:06;;;;;;;;;6.00;4.40;;;;;23.00;67.80;99801.66;5034388;28;46246;-56
2022/09/14 02:49:40;;;;;;;;;4.00;4.00;;;;;22.91;67.75;99781.19;5035721;28;45288;-54
2022/09/14 02:52:38;;;;;;;;;6.60;4.20;;;;;22.96;67.98;99791.44;5017852;28;45895;-55
2022/09/14 02:55:09;;;;;;;;;5.00;5.00;;;;;23.05;67.63;99792.28;5001279;28;45566;-56
2022/09/14 02:58:04;;;;;;;;;8.00;5.80;;;;;23.04;67.63;99807.44;5001425;28;46213;-55
2022/09/14 03:00:30;;;;;;;;;4.00;4.00;;;;;22.84;67.72;99776.03;5035589;28;45497;-56
2022/09/14 03:02:56;;;;;;;;;4.40;4.40;;;;;23.00;67.69;99803.63;5014780;28;45854;-56
2022/09/14 03:05:22;;;;;;;;;4.20;4.20;;;;;22.87;68.16;99806.19;5031559;28;45383;-57
2022/09/14 03:07:48;;;;;;;;;4.75;4.00;;;;;22.87;67.85;99806.19;5033219;28;46442;-56
2022/09/14 03:10:13;;;;;;;;;4.00;4.00;;;;;22.85;67.85;99791.66;5016402;28;45401;-53
2022/09/14 03:12:39;;;;;;;;;3.75;3.75;;;;;22.80;67.52;99782.59;5035712;28;45389;-54
2022/09/14 03:15:05;;;;;;;;;4.00;4.00;;;;;22.57;67.66;99733.09;5017305;28;45387;-56
2022/09/14 03:17:31;;;;;;;;;4.00;4.00;;;;;22.60;67.46;99742.81;5017701;28;46636;-53
2022/09/14 03:19:56;;;;;;;;;2.50;2.50;;;;;22.93;67.35;99798.47;5035191;28;45373;-56
2022/09/14 03:22:22;;;;;;;;;4.75;4.00;;;;;22.90;67.77;99790.75;5035231;28;45811;-55
2022/09/14 03:24:47;;;;;;;;;5.75;5.75;;;;;22.92;67.37;99796.84;5012870;28;45415;-54
2022/09/14 03:27:13;;;;;;;;;3.75;3.50;;;;;22.95;67.59;99795.38;5030382;28;47740;-54
2022/09/14 03:29:38;;;;;;;;;3.75;3.75;;;;;22.96;67.30;99805.41;5013557;28;45567;-56
2022/09/14 03:32:04;;;;;;;;;3.50;3.50;;;;;22.80;67.64;99763.84;5014774;28;45635;-54
2022/09/14 03:34:29;;;;;;;;;6.50;4.50;;;;;22.99;67.29;99793.56;5030766;28;45589;-55
2022/09/14 03:36:55;;;;;;;;;5.00;4.00;;;;;22.93;67.12;99780.88;5015155;28;46363;-53
2022/09/14 03:39:20;;;;;;;;;4.75;4.75;;;;;22.71;67.27;99751.75;5014333;28;45433;-54
2022/09/14 03:41:46;;;;;;;;;6.25;5.00;;;;;22.84;67.63;99781.63;4997444;28;45402;-53
2022/09/14 03:44:12;;;;;;;;;5.75;3.50;;;;;22.82;67.41;99769.94;5015243;28;45475;-52
2022/09/14 03:46:37;;;;;;;;;7.00;5.75;;;;;22.85;67.78;99783.28;5000940;28;46761;-54
2022/09/14 03:49:03;;;;;;;;;6.25;4.00;;;;;22.88;67.58;99779.88;5014544;28;45227;-51
2022/09/14 03:51:28;;;;;;;;;4.50;4.00;;;;;22.90;67.47;99792.69;4997176;28;45414;-54
2022/09/14 03:53:54;;;;;;;;;6.00;5.00;;;;;22.85;67.54;99808.47;5014414;28;45509;-55
2022/09/14 03:56:20;;;;;;;;;7.00;5.00;;;;;22.50;67.69;99757.84;5014835;28;45453;-56
2022/09/14 03:58:46;;;;;;;;;5.00;4.60;;;;;22.58;68.13;99771.06;5014007;28;45398;-53
2022/09/14 04:01:15;;;;;;;;;6.20;5.40;;;;;22.80;68.36;99796.56;5015002;28;45350;-54
2022/09/14 04:03:40;;;;;;;;;4.40;3.60;;;;;22.72;68.37;99792.56;5013265;28;45465;-54
2022/09/14 04:06:06;;;;;;;;;4.25;4.25;;;;;22.68;68.02;99778.41;4996599;28;45386;-53
2022/09/14 04:08:33;;;;;;;;;4.20;4.20;;;;;22.74;68.26;99779.09;5014517;28;45316;-53
2022/09/14 04:10:59;;;;;;;;;5.20;5.20;;;;;22.70;68.13;99781.72;5015512;28;45452;-56
2022/09/14 04:13:24;;;;;;;;;5.00;5.00;;;;;22.67;67.93;99778.72;5034937;28;45837;-53
2022/09/14 04:15:59;;;;;;;;;4.75;4.25;;;;;22.61;68.07;99762.06;5010520;28;47419;-54
2022/09/14 04:18:26;;;;;;;;;6.60;6.00;;;;;22.70;68.12;99776.13;4997917;28;45388;-54
2022/09/14 04:21:02;;;;;;;;;4.80;4.80;;;;;22.72;67.58;99770.19;5034555;28;45404;-56
2022/09/14 04:23:27;;;;;;;;;4.60;4.40;;;;;22.69;67.43;99762.44;5034047;28;45372;-52
2022/09/14 04:25:53;;;;;;;;;4.00;4.00;;;;;22.72;67.78;99771.03;5034253;28;45541;-54
2022/09/14 04:28:19;;;;;;;;;5.75;4.00;;;;;22.71;67.67;99765.75;5034226;28;45437;-55
2022/09/14 04:30:44;;;;;;;;;4.00;4.00;;;;;22.70;67.62;99758.50;5033985;28;45475;-53
2022/09/14 04:33:09;;;;;;;;;5.25;5.25;;;;;22.71;67.71;99765.75;5032993;28;45385;-53
2022/09/14 04:35:36;;;;;;;;;6.75;4.50;;;;;22.70;67.66;99761.31;5034186;28;46414;-55
2022/09/14 04:38:03;;;;;;;;;5.20;4.00;;;;;22.71;67.76;99751.75;5034147;28;45331;-54
2022/09/14 04:40:28;;;;;;;;;7.80;4.20;;;;;22.73;67.53;99752.28;5033921;28;45345;-53
2022/09/14 04:42:53;;;;;;;;;5.00;5.00;;;;;22.51;67.74;99725.97;5036899;28;45388;-56
2022/09/14 04:45:20;;;;;;;;;5.00;4.00;;;;;22.66;67.45;99766.72;5035984;28;47914;-53
2022/09/14 04:47:45;;;;;;;;;3.80;3.80;;;;;22.47;67.49;99750.91;5036903;28;45217;-55
2022/09/14 04:50:11;;;;;;;;;5.00;4.00;;;;;22.60;67.57;99770.78;5037502;28;45315;-55
2022/09/14 04:52:36;;;;;;;;;4.75;4.25;;;;;22.59;68.34;99760.72;5038040;28;45326;-56
2022/09/14 04:55:02;;;;;;;;;3.75;3.00;;;;;22.59;67.64;99758.78;5019325;28;48345;-56
2022/09/14 04:57:28;;;;;;;;;4.20;3.40;;;;;22.60;67.55;99752.03;5037326;28;45413;-55
2022/09/14 04:59:54;;;;;;;;;5.75;4.50;;;;;22.60;67.80;99756.78;5019513;28;45454;-57
2022/09/14 05:02:19;;;;;;;;;8.75;6.25;;;;;22.59;67.65;99743.97;5037825;28;45378;-56
2022/09/14 05:04:45;;;;;;;;;4.50;4.50;;;;;22.61;68.03;99750.06;5037031;28;46355;-53
2022/09/14 05:07:10;;;;;;;;;4.75;4.00;;;;;22.33;67.76;99714.63;5037275;28;45531;-53
2022/09/14 05:09:36;;;;;;;;;5.00;4.00;;;;;22.58;67.96;99740.31;5037203;28;45379;-56
2022/09/14 05:12:01;;;;;;;;;6.00;5.00;;;;;22.57;67.76;99737.88;5036698;28;45454;-53
2022/09/14 05:14:27;;;;;;;;;3.25;3.25;;;;;22.55;67.97;99734.53;5036510;28;46417;-57
2022/09/14 05:16:53;;;;;;;;;6.75;5.75;;;;;22.58;67.77;99733.94;5036344;28;45302;-54
2022/09/14 05:19:19;;;;;;;;;5.20;4.20;;;;;22.58;67.83;99725.53;5018632;28;45339;-56
2022/09/14 05:21:45;;;;;;;;;4.50;4.50;;;;;22.58;68.05;99717.16;5037520;28;45576;-57
2022/09/14 05:24:13;;;;;;;;;4.60;4.20;;;;;22.53;67.95;99723.69;5037163;28;46524;-55
2022/09/14 05:26:39;;;;;;;;;5.20;4.00;;;;;22.48;68.42;99721.00;5037297;28;45422;-55
2022/09/14 05:29:04;;;;;;;;;5.00;4.00;;;;;22.45;68.20;99724.41;5037007;28;45389;-56
2022/09/14 05:31:30;;;;;;;;;5.00;3.75;;;;;22.53;68.41;99725.66;5037677;28;45478;-57
2022/09/14 05:33:56;;;;;;;;;4.00;4.00;;;;;22.07;68.30;99653.78;5036479;28;47455;-55
2022/09/14 05:36:22;;;;;;;;;5.25;5.25;;;;;22.47;68.34;99722.16;4975742;28;45833;-57
2022/09/14 05:38:47;;;;;;;;;5.00;5.00;;;;;22.52;68.42;99724.81;5018394;28;45372;-54
2022/09/14 05:41:13;;;;;;;;;5.00;5.00;;;;;22.44;68.15;99717.16;5037280;28;45354;-55
2022/09/14 05:43:39;;;;;;;;;5.20;4.40;;;;;22.29;68.62;99701.59;5037350;28;46485;-56
2022/09/14 05:46:13;;;;;;;;;7.75;5.75;;;;;22.45;68.47;99732.78;5036780;28;45275;-55
2022/09/14 05:48:38;;;;;;;;;6.00;5.00;;;;;22.52;68.37;99733.22;5037407;28;45428;-54
2022/09/14 05:51:06;;;;;;;;;7.00;6.00;;;;;22.39;68.11;99729.31;5019352;28;45642;-57
2022/09/14 05:53:32;;;;;;;;;5.80;5.80;;;;;22.58;67.82;99747.91;5034121;28;46524;-54
2022/09/14 05:56:06;;;;;;;;;7.00;6.60;;;;;22.57;68.04;99744.28;5036594;28;45368;-58
2022/09/14 05:58:32;;;;;;;;;5.20;5.00;;;;;22.51;67.98;99753.94;5035971;28;45454;-52
2022/09/14 06:00:57;;;;;;;;;7.25;5.25;;;;;22.51;68.29;99753.09;5036356;28;45552;-50
2022/09/14 06:03:23;;;;;;;;;4.75;4.50;;;;;22.56;68.63;99755.75;5035390;28;46598;-51
2022/09/14 06:05:48;;;;;;;;;6.00;6.00;;;;;22.57;68.27;99758.25;5018855;28;45390;-54
2022/09/14 06:08:14;;;;;;;;;7.25;6.00;;;;;22.57;68.44;99752.66;5037018;28;45322;-53
2022/09/14 06:10:40;;;;;;;;;7.00;7.00;;;;;22.59;68.34;99739.22;5037151;28;45639;-54
2022/09/14 06:13:05;;;;;;;;;5.50;5.50;;;;;22.55;68.91;99752.16;5036499;28;45406;-52
2022/09/14 06:15:33;;;;;;;;;5.00;5.00;;;;;22.32;68.72;99714.94;5035660;28;45514;-54
2022/09/14 06:17:58;;;;;;;;;6.20;6.20;;;;;22.57;68.65;99751.84;5014973;28;45882;-56
2022/09/14 06:20:24;;;;;;;;;9.25;7.75;;;;;22.59;69.01;99757.94;4995176;28;45600;-57
2022/09/14 06:22:50;;;;;;;;;8.00;5.00;;;;;22.59;68.95;99750.38;4996942;28;45566;-59
2022/09/14 06:25:16;;;;;;;;;5.75;5.75;;;;;22.57;68.65;99747.06;4995138;28;45465;-58
2022/09/14 06:27:41;;;;;;;;;5.80;5.80;;;;;22.59;68.44;99755.97;5004431;28;45456;-59
2022/09/14 06:30:08;;;;;;;;;5.50;5.00;;;;;22.61;68.46;99753.69;5016764;28;45536;-60
2022/09/14 06:32:33;;;;;;;;;7.00;5.80;;;;;22.56;68.66;99756.59;5016563;28;46421;-60
2022/09/14 06:34:59;;;;;;;;;5.75;5.75;;;;;22.50;68.91;99752.25;5015704;28;45410;-58
2022/09/14 06:37:24;;;;;;;;;6.25;6.25;;;;;22.52;68.85;99751.97;5007278;28;45948;-58
2022/09/14 06:39:50;;;;;;;;;8.75;7.25;;;;;22.54;69.06;99747.72;5017038;28;45484;-59
2022/09/14 06:42:15;;;;;;;;;3.75;3.75;;;;;22.56;68.77;99758.56;5015105;28;47608;-59
2022/09/14 06:44:45;;;;;;;;;9.50;6.25;;;;;22.59;68.75;99750.38;5016202;28;45409;-58
2022/09/14 06:47:11;;;;;;;;;7.60;6.00;;;;;22.61;68.73;99759.28;5016347;28;45431;-58
2022/09/14 06:49:36;;;;;;;;;6.75;5.75;;;;;22.59;68.34;99764.38;5016679;28;45429;-57
2022/09/14 06:52:02;;;;;;;;;10.50;10.50;;;;;22.36;68.57;99727.13;5016044;28;45551;-58
2022/09/14 06:54:27;;;;;;;;;10.00;6.75;;;;;22.65;68.71;99769.81;5016278;28;45289;-60
2022/09/14 06:56:53;;;;;;;;;7.75;6.00;;;;;22.59;68.80;99772.75;5016463;28;45348;-54
2022/09/14 06:59:19;;;;;;;;;9.75;8.50;;;;;22.65;68.92;99781.00;5015240;28;45316;-56
2022/09/14 07:01:44;;;;;;;;;11.00;7.00;;;;;22.61;68.48;99770.47;5013202;28;47950;-59
2022/09/14 07:04:10;;;;;;;;;7.75;7.50;;;;;22.29;68.46;99702.44;5006473;28;45485;-56
2022/09/14 07:06:43;;;;;;;;;5.75;5.75;;;;;22.82;68.48;99772.75;5014183;28;45378;-57
2022/09/14 07:09:08;;;;;;;;;7.80;7.80;;;;;22.79;68.16;99756.59;4978106;28;45541;-55
2022/09/14 07:11:34;;;;;;;;;9.75;8.00;;;;;22.89;67.87;99763.88;5002179;28;45502;-55
2022/09/14 07:14:00;;;;;;;;;8.50;7.00;;;;;22.91;67.98;99763.56;5002067;28;45252;-54
2022/09/14 07:16:27;;;;;;;;;10.40;8.00;;;;;22.90;68.22;99759.13;4995223;28;45336;-56
2022/09/14 07:18:56;;;;;;;;;8.40;7.20;;;;;22.97;68.00;99768.72;5000361;28;45382;-59
2022/09/14 07:21:22;;;;;;;;;7.60;7.60;;;;;22.81;67.52;99737.53;5007666;28;46445;-54
2022/09/14 07:23:47;;;;;;;;;10.00;8.00;;;;;23.04;67.69;99759.88;5034556;28;45319;-52
2022/09/14 07:26:30;;;;;;;;;8.40;6.20;;;;;22.32;67.93;99662.66;5128520;27;45393;-49
2022/09/14 07:28:59;;;;;;;;;8.60;7.60;;;;;23.07;67.64;99770.44;5111704;27;45619;-57
2022/09/14 07:31:28;;;;;;;;;9.80;8.60;;;;;23.14;67.42;99782.00;5111478;27;45352;-52
2022/09/14 07:33:54;;;;;;;;;8.80;7.20;;;;;23.12;67.52;99770.28;5111887;27;45444;-53
2022/09/14 07:36:20;;;;;;;;;9.80;8.40;;;;;23.17;67.69;99785.28;5111051;27;45859;-55
2022/09/14 07:38:46;;;;;;;;;8.75;8.75;;;;;23.12;67.14;99767.47;5092808;27;45565;-51
2022/09/14 07:41:11;;;;;;;;;6.75;6.75;;;;;23.16;67.23;99778.88;5094229;27;45443;-48
2022/09/14 07:43:37;;;;;;;;;9.00;7.75;;;;;23.21;67.46;99784.31;5076011;27;48509;-56
2022/09/14 07:46:03;;;;;;;;;8.00;7.00;;;;;23.07;67.33;99766.81;5033126;27;46459;-55
2022/09/14 07:48:30;;;;;;;;;9.80;8.00;;;;;23.25;67.34;99787.31;5026585;28;45366;-53
2022/09/14 07:51:13;;;;;;;;;8.00;6.80;;;;;23.25;66.98;99784.50;5032552;28;45485;-53
2022/09/14 07:53:44;;;;;;;;;7.60;5.60;;;;;23.33;67.10;99788.53;5056556;28;45816;-50
2022/09/14 07:56:11;;;;;;;;;6.00;6.00;;;;;23.37;66.77;99806.34;5036506;28;47527;-54
2022/09/14 07:58:37;;;;;;;;;7.80;7.80;;;;;23.38;66.50;99808.00;5048621;28;45449;-56
2022/09/14 08:01:10;;;;;;;;;6.00;6.00;;;;;23.21;66.54;99787.13;5066715;28;45380;-56
2022/09/14 08:03:35;;;;;;;;;8.60;7.80;;;;;23.34;66.62;99818.19;5039586;28;45509;-53
2022/09/14 08:06:06;;;;;;;;;7.40;7.40;;;;;23.28;67.22;99806.28;5057872;28;46125;-55
2022/09/14 08:08:33;;;;;;;;;7.20;7.20;;;;;23.26;67.25;99816.97;5067127;28;45445;-55
2022/09/14 08:11:07;;;;;;;;;8.40;7.00;;;;;23.20;67.78;99816.25;5048457;28;45641;-54
2022/09/14 08:13:33;;;;;;;;;5.40;5.40;;;;;22.95;67.93;99796.19;5053468;28;45646;-54
2022/09/14 08:15:59;;;;;;;;;6.80;6.80;;;;;22.55;67.93;99728.94;5028393;28;45893;-55
2022/09/14 08:18:25;;;;;;;;;7.80;5.80;;;;;23.18;68.01;99834.50;5059749;28;45453;-55
2022/09/14 08:20:51;;;;;;;;;7.60;5.80;;;;;23.21;67.90;99836.69;5066736;28;45473;-57
2022/09/14 08:23:17;;;;;;;;;9.25;7.75;;;;;23.20;67.46;99840.63;5038162;28;45959;-56
2022/09/14 08:25:42;;;;;;;;;6.50;6.50;;;;;23.10;67.83;99822.94;5046430;28;46446;-56
2022/09/14 08:28:08;;;;;;;;;7.25;7.00;;;;;23.27;67.51;99843.81;5028198;28;45763;-56
2022/09/14 08:30:33;;;;;;;;;11.00;9.00;;;;;23.40;66.87;99850.50;5060035;28;45498;-55
2022/09/14 08:32:59;;;;;;;;;10.50;7.75;;;;;23.39;67.54;99855.28;5048606;28;45426;-55
2022/09/14 08:35:24;;;;;;;;;11.25;7.25;;;;;23.36;67.54;99846.66;5037491;28;46263;-54
2022/09/14 08:37:50;;;;;;;;;9.50;7.50;;;;;23.42;67.05;99848.19;5052726;28;45732;-56
2022/09/14 08:40:16;;;;;;;;;7.75;7.75;;;;;22.99;67.42;99779.59;5042150;28;45404;-52
2022/09/14 08:42:42;;;;;;;;;9.00;8.00;;;;;23.39;66.86;99844.06;5028491;28;45903;-59
2022/09/14 08:45:10;;;;;;;;;9.75;8.00;;;;;23.42;66.63;99837.81;5042971;28;45802;-59
2022/09/14 08:47:37;;;;;;;;;8.00;8.00;;;;;23.55;66.49;99854.84;5016716;28;45863;-57
2022/09/14 08:50:09;;;;;;;;;8.80;8.80;;;;;23.42;66.48;99831.38;5041379;28;45482;-56
2022/09/14 08:52:37;;;;;;;;;9.20;8.00;;;;;23.50;66.10;99841.00;5053123;28;45535;-60
2022/09/14 08:55:27;;;;;;;;;8.80;8.00;;;;;23.61;66.25;99853.56;5032947;28;45649;-59
2022/09/14 08:57:59;;;;;;;;;5.80;5.80;;;;;23.71;65.74;99862.81;5053036;28;45452;-59
2022/09/14 09:00:31;;;;;;;;;5.00;5.00;;;;;23.75;65.77;99867.44;5052654;28;45727;-58
2022/09/14 09:03:10;;;;;;;;;7.60;7.40;;;;;23.77;65.84;99855.94;5019464;28;45461;-57
2022/09/14 09:06:01;;;;;;;;;6.60;6.60;;;;;23.64;65.99;99838.09;5032951;28;45413;-59
2022/09/14 09:08:48;;;;;;;;;7.20;7.20;;;;;23.86;65.53;99862.41;4982412;28;45791;-60
2022/09/14 09:11:18;;;;;;;;;7.60;7.60;;;;;23.72;65.81;99826.09;5020252;28;45482;-59
2022/09/14 09:13:44;;;;;;;;;8.20;7.80;;;;;23.98;64.93;99863.75;5014731;28;45953;-60
2022/09/14 09:16:09;;;;;;;;;6.40;6.40;;;;;24.05;64.61;99861.31;5014574;28;46569;-59
2022/09/14 09:18:36;;;;;;;;;8.00;6.00;;;;;24.09;64.29;99859.53;5006629;28;46029;-59
2022/09/14 09:21:12;;;;;;;;;8.20;6.40;;;;;24.08;64.18;99857.91;5052642;28;45540;-56
2022/09/14 09:23:38;;;;;;;;;8.20;8.00;;;;;23.94;64.23;99830.78;5035933;28;45472;-60
2022/09/14 09:26:27;;;;;;;;;9.50;7.00;;;;;24.17;63.56;99869.94;5017217;28;47148;-60
2022/09/14 09:28:57;;;;;;;;;6.60;6.60;;;;;24.23;63.31;99871.44;5052191;28;45414;-60
2022/09/14 09:31:32;;;;;;;;;6.80;5.80;;;;;24.18;63.09;99845.56;5050683;28;45818;-60
2022/09/14 09:33:58;;;;;;;;;8.00;6.00;;;;;24.28;62.96;99864.84;5034611;28;45798;-60
2022/09/14 09:36:23;;;;;;;;;8.00;7.50;;;;;24.28;63.38;99862.06;5034054;28;45443;-61
2022/09/14 09:38:49;;;;;;;;;8.75;6.75;;;;;24.28;62.97;99867.66;5052081;28;45458;-60
2022/09/14 09:41:24;;;;;;;;;6.75;6.75;;;;;24.34;63.69;99859.94;5032607;28;45412;-60
2022/09/14 09:44:09;;;;;;;;;6.20;5.00;;;;;24.42;63.05;99861.09;5030468;28;45861;-63
2022/09/14 09:46:39;;;;;;;;;7.00;7.00;;;;;24.51;62.13;99859.13;5031443;28;45871;-60
2022/09/14 09:49:24;;;;;;;;;8.00;6.60;;;;;24.42;61.45;99836.69;4978696;28;45966;-60
2022/09/14 09:51:49;;;;;;;;;9.20;6.40;;;;;24.73;60.50;99858.16;5035970;28;45540;-62
2022/09/14 09:54:15;;;;;;;;;6.25;5.00;;;;;24.68;60.11;99835.88;5000946;28;45432;-58
2022/09/14 09:56:50;;;;;;;;;7.75;6.25;;;;;24.69;60.33;99834.72;5035454;28;45360;-58
2022/09/14 09:59:28;;;;;;;;;8.80;7.20;;;;;24.92;60.84;99859.84;5017906;28;45592;-59
2022/09/14 10:01:55;;;;;;;;;9.60;7.40;;;;;24.91;60.35;99841.34;5036124;28;45298;-59
2022/09/14 10:04:24;;;;;;;;;6.20;5.00;;;;;25.12;58.86;99855.53;5035935;28;45621;-59
2022/09/14 10:06:50;;;;;;;;;4.80;4.80;;;;;25.25;58.77;99855.66;5018498;28;46185;-59
2022/09/14 10:09:24;;;;;;;;;6.80;6.80;;;;;25.29;59.33;99845.44;5017937;28;45433;-58
2022/09/14 10:11:57;;;;;;;;;6.00;5.00;;;;;25.50;58.79;99841.91;5018205;28;45346;-60
2022/09/14 10:14:32;;;;;;;;;5.80;5.00;;;;;25.63;58.16;99840.06;5035885;28;45623;-59
2022/09/14 10:17:30;;;;;;;;;8.20;7.40;;;;;25.78;57.70;99838.69;5000743;28;48165;-59
2022/09/14 10:19:57;;;;;;;;;6.00;5.00;;;;;25.84;56.62;99832.50;4980478;28;45633;-56
2022/09/14 10:22:26;;;;;;;;;4.60;4.60;;;;;25.90;55.83;99837.94;5018228;28;45513;-58
2022/09/14 10:25:21;;;;;;;;;3.20;3.20;;;;;25.84;54.73;99828.91;5035272;28;45598;-59
2022/09/14 10:27:57;;;;;;;;;4.40;4.40;;;;;25.62;54.30;99804.69;5012758;28;46232;-58
2022/09/14 10:30:22;;;;;;;;;5.60;4.80;;;;;25.76;54.95;99819.34;5035620;28;45417;-59
2022/09/14 10:33:03;;;;;;;;;3.50;3.50;;;;;25.33;54.67;99753.72;5035505;28;45820;-59
2022/09/14 10:35:53;;;;;;;;;3.60;3.00;;;;;25.53;55.04;99785.91;5035969;28;45412;-59
2022/09/14 10:38:31;;;;;;;;;3.00;3.00;;;;;25.69;54.31;99816.25;5019684;28;45551;-59
2022/09/14 10:41:05;;;;;;;;;3.00;2.80;;;;;25.73;53.41;99797.56;5035191;28;45483;-58
2022/09/14 10:43:37;;;;;;;;;2.80;2.60;;;;;25.79;53.21;99800.97;5035622;28;45270;-58
2022/09/14 10:46:03;;;;;;;;;3.20;3.20;;;;;25.82;51.71;99789.88;5017488;28;45343;-58
2022/09/14 10:49:08;;;;;;;;;2.50;2.50;;;;;25.93;51.84;99781.09;5035268;28;46138;-59
2022/09/14 10:51:41;;;;;;;;;4.00;4.00;;;;;26.16;51.98;99792.84;5003582;28;45397;-59
2022/09/14 10:54:44;;;;;;;;;3.80;3.80;;;;;26.22;51.40;99785.88;5035304;28;45382;-60
2022/09/14 10:57:29;;;;;;;;;4.60;3.00;;;;;26.25;50.47;99768.31;4952747;28;45555;-59
2022/09/14 11:00:04;;;;;;;;;4.00;4.00;;;;;26.45;50.11;99793.13;5034516;28;46803;-58
2022/09/14 11:02:41;;;;;;;;;2.20;2.20;;;;;26.45;50.09;99750.94;4985480;28;45440;-58
2022/09/14 11:05:11;;;;;;;;;3.60;3.00;;;;;26.75;49.52;99779.81;5017273;28;45434;-60
2022/09/14 11:07:48;;;;;;;;;5.80;5.00;;;;;26.69;49.15;99784.00;5001546;28;45897;-60
2022/09/14 11:10:26;;;;;;;;;3.00;3.00;;;;;26.66;49.45;99773.44;5034853;28;45613;-59
2022/09/14 11:13:33;;;;;;;;;3.60;2.00;;;;;26.86;48.98;99780.22;5034846;28;45389;-59
2022/09/14 11:16:10;;;;;;;;;3.00;3.00;;;;;27.04;48.30;99771.59;5034269;28;45362;-60
2022/09/14 11:18:43;;;;;;;;;3.00;3.00;;;;;27.09;47.59;99773.38;5035229;28;45455;-59
2022/09/14 11:21:21;;;;;;;;;2.20;2.20;;;;;27.08;47.62;99775.38;5034550;28;45396;-58
2022/09/14 11:24:11;;;;;;;;;5.00;3.00;;;;;27.40;47.87;99772.84;5034804;28;45591;-59
2022/09/14 11:26:43;;;;;;;;;3.20;3.20;;;;;27.63;47.12;99760.34;5010529;28;45440;-59
2022/09/14 11:29:28;;;;;;;;;2.80;2.80;;;;;27.77;46.53;99774.06;5000761;28;45360;-60
2022/09/14 11:32:33;;;;;;;;;3.20;2.00;;;;;27.85;46.22;99773.94;5016633;28;47168;-57
2022/09/14 11:35:17;;;;;;;;;2.40;2.40;;;;;27.72;46.90;99770.31;5034556;28;45266;-59
2022/09/14 11:37:56;;;;;;;;;3.40;2.80;;;;;27.75;47.13;99780.06;5016577;28;45308;-59
2022/09/14 11:40:31;;;;;;;;;4.00;4.00;;;;;27.68;45.81;99776.97;5016382;28;45661;-58
2022/09/14 11:43:08;;;;;;;;;4.00;3.00;;;;;27.60;46.87;99781.59;5016672;28;46183;-59
2022/09/14 11:45:37;;;;;;;;;4.60;2.80;;;;;27.29;47.36;99741.50;5016305;28;45757;-59
2022/09/14 11:48:21;;;;;;;;;1.40;1.40;;;;;27.45;47.05;99783.06;5016938;28;45432;-59
2022/09/14 11:50:50;;;;;;;;;6.40;6.40;;;;;27.37;47.97;99784.81;5034898;28;45412;-59